createdAt,value
2023-03-01T00:00:23.794Z,99401.03
2023-03-01T00:05:48.543Z,99404.47
2023-03-01T00:11:16.564Z,99405.88
2023-03-01T00:16:41.453Z,99405.16
2023-03-01T00:22:03.278Z,99400.97
2023-03-01T00:27:24.967Z,99405.41
2023-03-01T00:32:46.973Z,99407.22
2023-03-01T00:38:09.125Z,99406.38
2023-03-01T00:43:31.817Z,99403.75
2023-03-01T00:48:54.541Z,99404.69
2023-03-01T00:54:16.246Z,99397.69
2023-03-01T00:59:37.998Z,99403.63
2023-03-01T01:05:00.111Z,99405.28
2023-03-01T01:10:21.815Z,99393.38
2023-03-01T01:15:43.553Z,99394.09
2023-03-01T01:21:07.895Z,99390.72
2023-03-01T01:26:32.302Z,99386.53
2023-03-01T01:31:54.344Z,99385.59
2023-03-01T01:37:16.129Z,99377.75
2023-03-01T01:42:37.870Z,99377.91
2023-03-01T01:48:05.601Z,99370.16
2023-03-01T01:53:27.586Z,99368.00
2023-03-01T01:58:50.229Z,99359.41
2023-03-01T02:04:12.167Z,99349.03
2023-03-01T02:09:36.413Z,99347.28
2023-03-01T02:14:58.180Z,99341.22
2023-03-01T02:20:25.740Z,99329.03
2023-03-01T02:26:01.717Z,99324.63
2023-03-01T02:31:42.065Z,99322.13
2023-03-01T02:37:08.346Z,99321.38
2023-03-01T02:42:37.202Z,99308.38
2023-03-01T02:47:59.015Z,99315.09
2023-03-01T02:53:33.373Z,99306.59
2023-03-01T02:58:55.432Z,99293.84
2023-03-01T03:04:19.471Z,99282.56
2023-03-01T03:09:41.226Z,99288.56
2023-03-01T03:15:09.585Z,99287.56
2023-03-01T03:20:31.558Z,99275.53
2023-03-01T03:25:53.268Z,99274.56
2023-03-01T03:31:15.130Z,99265.09
2023-03-01T03:36:36.876Z,99272.88
2023-03-01T03:41:58.624Z,99270.16
2023-03-01T03:47:20.353Z,99268.44
2023-03-01T03:52:43.085Z,99265.78
2023-03-01T03:58:07.904Z,99268.38
2023-03-01T04:03:32.791Z,99258.84
2023-03-01T04:08:59.213Z,99249.25
2023-03-01T04:14:20.920Z,99244.09
2023-03-01T04:19:44.946Z,99239.78
2023-03-01T04:25:07.865Z,99239.09
2023-03-01T04:30:29.847Z,99239.22
2023-03-01T04:35:52.503Z,99237.50
2023-03-01T04:41:16.069Z,99241.06
2023-03-01T04:46:37.827Z,99235.97
2023-03-01T04:52:03.081Z,99238.44
2023-03-01T04:57:24.875Z,99237.31
2023-03-01T05:02:58.537Z,99238.22
2023-03-01T05:08:21.666Z,99232.94
2023-03-01T05:13:43.437Z,99234.63
2023-03-01T05:19:12.373Z,99234.78
2023-03-01T05:24:36.111Z,99217.50
2023-03-01T05:29:57.849Z,99222.75
2023-03-01T05:35:20.093Z,99222.50
2023-03-01T05:40:46.876Z,99223.41
2023-03-01T05:46:13.547Z,99234.69
2023-03-01T05:51:35.429Z,99230.06
2023-03-01T05:56:57.279Z,99221.47
2023-03-01T06:02:19.476Z,99206.81
2023-03-01T06:07:42.027Z,99211.47
2023-03-01T06:13:03.802Z,99211.09
2023-03-01T06:18:25.759Z,99200.00
2023-03-01T06:23:47.504Z,99208.69
2023-03-01T06:29:09.662Z,99206.88
2023-03-01T06:34:31.839Z,99205.75
2023-03-01T06:39:53.545Z,99218.25
2023-03-01T06:45:15.870Z,99219.66
2023-03-01T06:50:39.261Z,99224.25
2023-03-01T06:56:01.228Z,99226.81
2023-03-01T07:01:23.078Z,99219.09
2023-03-01T07:06:44.799Z,99217.22
2023-03-01T07:12:06.945Z,99214.88
2023-03-01T07:17:28.779Z,99214.72
2023-03-01T07:22:50.484Z,99208.88
2023-03-01T07:28:12.210Z,99198.63
2023-03-01T07:33:33.973Z,99201.31
2023-03-01T07:38:56.729Z,99192.63
2023-03-01T07:44:18.530Z,99193.94
2023-03-01T07:49:40.280Z,99185.78
2023-03-01T07:55:02.024Z,99178.72
2023-03-01T08:00:24.079Z,99178.56
2023-03-01T08:05:45.798Z,99180.59
2023-03-01T08:11:10.848Z,99171.03
2023-03-01T08:16:34.518Z,99175.25
2023-03-01T08:21:59.137Z,99172.47
2023-03-01T08:27:20.921Z,99173.28
2023-03-01T08:32:42.889Z,99169.03
2023-03-01T08:38:04.844Z,99160.72
2023-03-01T08:43:26.599Z,99163.03
2023-03-01T08:48:48.644Z,99165.75
2023-03-01T08:54:15.972Z,99150.91
2023-03-01T08:59:38.340Z,99151.81
2023-03-01T09:05:00.124Z,99139.38
2023-03-01T09:10:22.006Z,99135.19
2023-03-01T09:15:43.760Z,99130.34
2023-03-01T09:21:08.310Z,99126.84
2023-03-01T09:26:30.547Z,99105.81
2023-03-01T09:31:55.968Z,99100.53
2023-03-01T09:37:17.764Z,99107.69
2023-03-01T09:42:49.947Z,99097.25
2023-03-01T09:48:17.691Z,99111.69
2023-03-01T09:53:39.603Z,99099.13
2023-03-01T09:59:21.733Z,99084.09
2023-03-01T10:04:49.984Z,99083.53
2023-03-01T10:10:26.769Z,99071.00
2023-03-01T10:15:57.002Z,99065.59
2023-03-01T10:21:20.716Z,99054.34
2023-03-01T10:26:50.032Z,99047.97
2023-03-01T10:32:12.223Z,99047.66
2023-03-01T10:37:34.019Z,99035.31
2023-03-01T10:42:59.767Z,99026.25
2023-03-01T10:48:27.859Z,99027.06
2023-03-01T10:53:51.781Z,99018.88
2023-03-01T10:59:26.102Z,99011.59
2023-03-01T11:05:24.711Z,98993.28
2023-03-01T11:10:46.495Z,98985.41
2023-03-01T11:16:13.114Z,98979.38
2023-03-01T11:21:37.744Z,98977.13
2023-03-01T11:27:03.511Z,98966.88
2023-03-01T11:32:29.176Z,98957.06
2023-03-01T11:38:02.826Z,98937.09
2023-03-01T11:43:37.736Z,98934.25
2023-03-01T11:49:17.824Z,98928.19
2023-03-01T11:55:04.962Z,98915.50
2023-03-01T12:00:43.694Z,98909.13
2023-03-01T12:06:32.749Z,98887.13
2023-03-01T12:12:24.656Z,98883.06
2023-03-01T12:18:00.464Z,98867.97
2023-03-01T12:23:25.387Z,98845.00
2023-03-01T12:29:00.725Z,98842.00
2023-03-01T12:34:32.183Z,98833.13
2023-03-01T12:40:05.539Z,98823.84
2023-03-01T12:45:55.448Z,98817.69
2023-03-01T12:51:23.484Z,98797.63
2023-03-01T12:56:53.182Z,98781.78
2023-03-01T13:02:38.409Z,98774.47
2023-03-01T13:08:05.131Z,98764.41
2023-03-01T13:13:28.891Z,98768.44
2023-03-01T13:18:50.661Z,98759.53
2023-03-01T13:24:39.577Z,98763.75
2023-03-01T13:30:04.532Z,98771.34
2023-03-01T13:35:42.467Z,98768.22
2023-03-01T13:41:05.606Z,98770.09
2023-03-01T13:46:27.563Z,98757.34
2023-03-01T13:51:52.832Z,98754.13
2023-03-01T13:57:23.682Z,98754.22
2023-03-01T14:02:45.450Z,98758.13
2023-03-01T14:08:23.621Z,98745.53
2023-03-01T14:14:10.580Z,98743.06
2023-03-01T14:19:34.336Z,98768.06
2023-03-01T14:25:03.306Z,98755.63
2023-03-01T14:30:28.872Z,98759.75
2023-03-01T14:35:54.850Z,98764.06
2023-03-01T14:41:20.579Z,98779.25
2023-03-01T14:46:45.211Z,98768.53
2023-03-01T14:52:23.079Z,98779.38
2023-03-01T14:57:49.152Z,98774.31
2023-03-01T15:03:24.542Z,98768.50
2023-03-01T15:08:51.338Z,98774.25
2023-03-01T15:14:47.323Z,98773.91
2023-03-01T15:20:19.440Z,98768.19
2023-03-01T15:25:46.019Z,98766.50
2023-03-01T15:31:36.933Z,98768.53
2023-03-01T15:37:01.563Z,98769.69
2023-03-01T15:42:26.368Z,98767.97
2023-03-01T15:47:54.621Z,98757.50
2023-03-01T15:53:16.477Z,98750.03
2023-03-01T15:58:38.215Z,98745.72
2023-03-01T16:03:59.976Z,98743.22
2023-03-01T16:09:24.121Z,98732.13
2023-03-01T16:14:45.838Z,98741.53
2023-03-01T16:20:09.909Z,98740.91
2023-03-01T16:25:33.324Z,98736.34
2023-03-01T16:30:55.195Z,98745.34
2023-03-01T16:36:19.777Z,98751.38
2023-03-01T16:41:41.530Z,98749.00
2023-03-01T16:47:03.338Z,98751.88
2023-03-01T16:52:25.187Z,98761.53
2023-03-01T16:57:46.913Z,98771.09
2023-03-01T17:03:08.767Z,98783.41
2023-03-01T17:08:30.690Z,98791.22
2023-03-01T17:13:52.423Z,98803.81
2023-03-01T17:19:18.517Z,98806.28
2023-03-01T17:24:41.755Z,98808.72
2023-03-01T17:30:04.894Z,98829.34
2023-03-01T17:35:26.639Z,98829.16
2023-03-01T17:40:48.624Z,98824.31
2023-03-01T17:46:11.244Z,98834.91
2023-03-01T17:51:33.428Z,98838.97
2023-03-01T17:56:56.397Z,98837.44
2023-03-01T18:02:19.485Z,98835.34
2023-03-01T18:07:41.378Z,98831.63
2023-03-01T18:13:04.997Z,98828.63
2023-03-01T18:18:30.128Z,98834.19
2023-03-01T18:23:52.992Z,98836.94
2023-03-01T18:29:14.833Z,98835.00
2023-03-01T18:34:36.586Z,98834.66
2023-03-01T18:39:58.295Z,98832.28
2023-03-01T18:45:20.062Z,98840.09
2023-03-01T18:50:42.298Z,98835.22
2023-03-01T18:56:04.435Z,98825.28
2023-03-01T19:01:28.452Z,98822.53
2023-03-01T19:06:50.510Z,98818.88
2023-03-01T19:12:12.312Z,98812.22
2023-03-01T19:17:34.634Z,98811.50
2023-03-01T19:22:56.365Z,98811.16
2023-03-01T19:28:18.110Z,98807.00
2023-03-01T19:33:40.270Z,98802.78
2023-03-01T19:39:05.105Z,98808.22
2023-03-01T19:44:26.925Z,98806.94
2023-03-01T19:49:48.688Z,98810.09
2023-03-01T19:55:11.099Z,98808.63
2023-03-01T20:00:34.386Z,98811.66
2023-03-01T20:05:56.664Z,98799.91
2023-03-01T20:11:19.869Z,98818.22
2023-03-01T20:16:44.331Z,98815.31
2023-03-01T20:22:06.177Z,98819.28
2023-03-01T20:27:28.006Z,98816.09
2023-03-01T20:32:49.737Z,98811.75
2023-03-01T20:38:11.548Z,98807.75
2023-03-01T20:43:34.645Z,98803.72
2023-03-01T20:48:56.547Z,98805.41
2023-03-01T20:54:18.433Z,98803.09
2023-03-01T20:59:40.198Z,98801.09
2023-03-01T21:05:02.135Z,98788.13
2023-03-01T21:10:24.017Z,98797.16
2023-03-01T21:15:57.300Z,98792.38
2023-03-01T21:21:21.408Z,98791.75
2023-03-01T21:26:43.188Z,98795.69
2023-03-01T21:32:06.445Z,98789.56
2023-03-01T21:37:28.590Z,98784.22
2023-03-01T21:42:50.337Z,98778.22
2023-03-01T21:48:12.050Z,98777.41
2023-03-01T21:53:36.052Z,98774.81
2023-03-01T21:58:58.509Z,98764.25
2023-03-01T22:04:22.397Z,98756.84
2023-03-01T22:09:45.529Z,98756.28
2023-03-01T22:15:07.813Z,98758.97
2023-03-01T22:20:29.538Z,98768.22
2023-03-01T22:25:51.248Z,98765.63
2023-03-01T22:31:12.987Z,98757.56
2023-03-01T22:36:35.262Z,98769.72
2023-03-01T22:41:56.972Z,98767.91
2023-03-01T22:47:18.724Z,98761.00
2023-03-01T22:52:40.510Z,98756.66
2023-03-01T22:58:02.233Z,98753.91
2023-03-01T23:03:24.011Z,98759.59
2023-03-01T23:08:50.942Z,98758.28
2023-03-01T23:14:13.202Z,98755.78
2023-03-01T23:19:34.936Z,98757.56
2023-03-01T23:24:56.656Z,98759.88
2023-03-01T23:30:18.475Z,98749.59
2023-03-01T23:35:40.271Z,98747.09
2023-03-01T23:41:02.048Z,98747.50
2023-03-01T23:46:27.176Z,98744.88
2023-03-01T23:51:48.943Z,98747.63
2023-03-01T23:57:10.673Z,98745.72
